createdAt,value
2022-09-30T17:18:11.865Z,18.53
2022-09-30T17:21:17.826Z,18.49
2022-09-30T17:24:19.509Z,18.51
2022-09-30T17:27:21.087Z,18.51
2022-09-30T17:30:29.796Z,18.56
2022-09-30T17:33:35.247Z,18.55
2022-09-30T17:36:37.250Z,18.54
2022-09-30T17:39:41.644Z,18.50
2022-09-30T17:43:01.696Z,18.51
2022-09-30T17:46:03.757Z,18.51
2022-09-30T17:49:05.314Z,18.52
2022-09-30T17:52:07.338Z,18.51
2022-09-30T17:55:09.088Z,18.50
2022-09-30T17:58:12.420Z,18.51
2022-09-30T18:01:16.144Z,18.59
2022-09-30T18:04:19.655Z,18.59
2022-09-30T18:07:25.448Z,18.60
2022-09-30T18:10:27.770Z,18.64
2022-09-30T18:13:29.727Z,18.75
2022-09-30T18:16:33.869Z,18.79
2022-09-30T18:19:36.166Z,18.83
2022-09-30T18:22:46.990Z,18.80
2022-09-30T18:25:54.478Z,18.80
2022-09-30T18:33:57.388Z,18.72
2022-09-30T18:37:04.088Z,18.81
2022-09-30T18:40:06.570Z,18.87
2022-09-30T18:43:13.390Z,18.94
2022-09-30T18:46:14.942Z,18.95
2022-09-30T18:49:37.046Z,18.89
2022-09-30T18:52:53.485Z,18.87
2022-09-30T18:55:59.284Z,18.92
2022-09-30T18:59:04.373Z,18.89
2022-09-30T19:02:06.174Z,18.80
2022-09-30T19:05:08.624Z,18.80
2022-09-30T19:08:11.434Z,18.78
2022-09-30T19:11:15.501Z,18.76
2022-09-30T19:14:17.062Z,18.75
2022-09-30T19:17:18.646Z,18.76
2022-09-30T19:24:21.959Z,17.56
2022-09-30T19:32:34.951Z,16.32
2022-09-30T19:35:40.824Z,16.20
2022-09-30T19:38:45.255Z,16.11
2022-09-30T19:41:47.239Z,16.08
2022-09-30T19:44:49.386Z,16.03
